»·PEaware :: N1765R KMYF-KNYL

N1765R :: KMYF-KNYL

FLIGHT INFORMATION

Flight Status: Arrived
Operator: Privately registered:
United States
More flights under this callsign
Pilot: Eric S. (19226)
Aircraft: CESSNA T210 TURBO CENTURION
(T210)
More flights by this aircraft type
Origin: KMYF Montgomery
United States
Destination: KNYL Yuma MCAS/Yuma Intl
United States
More flights between these airports :: More routes between these airports
Route: IPL BZA
File this flight plan on PilotEdge
Remarks:
Altitude:
(Current/Filed)
9,000ft
Speed:
(Current/Filed)
165kts
Departed: 11-Nov-19 07:28 PM
Arrived: 11-Nov-19 08:31 PM
Distance/Time
Traveled:
128nm/1:03
Distance/Time
To Go:
Arrived

Flight Plot

Page will automatically refresh every two minutes.


Map Options




Map Legend


Flown Route
Filed Route
Departure Airport
Arrival Airport
Navaid (VOR, NDB)
Fix

Horizontal Profiles

Position Reports

Time Latitude Longitude Heading Altitude Ground
Speed
11-Nov-19 19:05 32.814011 -117.142955 335 414ft 0kts
11-Nov-19 19:06 32.814011 -117.142955 335 414ft 0kts
11-Nov-19 19:07 32.814011 -117.142955 335 414ft 0kts
11-Nov-19 19:08 32.814011 -117.142955 335 414ft 0kts
11-Nov-19 19:09 32.814011 -117.142955 335 414ft 0kts
11-Nov-19 19:10 32.814011 -117.142955 335 414ft 0kts
11-Nov-19 19:11 32.814011 -117.142955 335 414ft 0kts
11-Nov-19 19:12 32.814011 -117.142955 335 414ft 0kts
11-Nov-19 19:13 32.814011 -117.142955 335 414ft 0kts
11-Nov-19 19:14 32.814011 -117.142955 335 414ft 0kts
11-Nov-19 19:15 32.814011 -117.142955 335 414ft 0kts
11-Nov-19 19:16 32.814011 -117.142955 335 414ft 0kts
11-Nov-19 19:17 32.814011 -117.142955 335 414ft 0kts
11-Nov-19 19:18 32.814011 -117.142955 335 414ft 0kts
11-Nov-19 19:19 32.814011 -117.142955 335 414ft 0kts
11-Nov-19 19:20 32.814583 -117.142372 30 415ft 7kts
11-Nov-19 19:21 32.813172 -117.137716 115 420ft 23kts
11-Nov-19 19:22 32.811491 -117.132094 56 419ft 13kts
11-Nov-19 19:23 32.812080 -117.131423 28 421ft 0kts
11-Nov-19 19:24 32.812080 -117.131423 28 421ft 0kts
11-Nov-19 19:25 32.812080 -117.131423 28 421ft 0kts
11-Nov-19 19:26 32.813058 -117.131769 297 423ft 28kts
11-Nov-19 19:27 32.822908 -117.155851 303 1107ft 98kts
11-Nov-19 19:28 32.833089 -117.138633 96 2176ft 104kts
11-Nov-19 19:29 32.826285 -117.105090 99 3242ft 107kts
11-Nov-19 19:30 32.819017 -117.070385 99 4260ft 108kts
11-Nov-19 19:31 32.812160 -117.028319 90 4491ft 154kts
11-Nov-19 19:32 32.809965 -116.973732 89 4482ft 171kts
11-Nov-19 19:33 32.807907 -116.916804 90 4481ft 173kts
11-Nov-19 19:34 32.805806 -116.859422 90 4481ft 172kts
11-Nov-19 19:35 32.803709 -116.802744 90 4481ft 171kts
11-Nov-19 19:36 32.801595 -116.746413 90 4623ft 164kts
11-Nov-19 19:37 32.799637 -116.694506 89 5403ft 151kts
11-Nov-19 19:38 32.797775 -116.645514 88 6192ft 146kts
11-Nov-19 19:39 32.795939 -116.597876 88 7088ft 136kts
11-Nov-19 19:40 32.794308 -116.554773 88 8068ft 124kts
11-Nov-19 19:41 32.792836 -116.514832 88 9052ft 117kts
11-Nov-19 19:42 32.791299 -116.473413 89 9497ft 146kts
11-Nov-19 19:43 32.789114 -116.422252 90 9488ft 156kts
11-Nov-19 19:44 32.786959 -116.370313 89 9482ft 157kts
11-Nov-19 19:45 32.784815 -116.318179 90 9470ft 158kts
11-Nov-19 19:46 32.782651 -116.265724 89 9456ft 159kts
11-Nov-19 19:47 32.780610 -116.212529 92 9443ft 158kts
11-Nov-19 19:48 32.778308 -116.160949 93 9429ft 155kts
11-Nov-19 19:49 32.776097 -116.109602 93 9427ft 154kts
11-Nov-19 19:50 32.773906 -116.058601 93 9427ft 154kts
11-Nov-19 19:51 32.771693 -116.007515 93 9426ft 154kts
11-Nov-19 19:52 32.769457 -115.956361 93 9426ft 154kts
11-Nov-19 19:53 32.767202 -115.905257 93 9426ft 154kts
11-Nov-19 19:54 32.764910 -115.853731 93 9426ft 156kts
11-Nov-19 19:55 32.762627 -115.802983 93 9500ft 153kts
11-Nov-19 19:56 32.760321 -115.752136 93 9499ft 154kts
11-Nov-19 19:57 32.757995 -115.701305 93 9499ft 154kts
11-Nov-19 19:58 32.755650 -115.650484 93 9497ft 154kts
11-Nov-19 19:59 32.753277 -115.599528 93 9494ft 154kts
11-Nov-19 20:00 32.750880 -115.548489 93 9490ft 154kts
11-Nov-19 20:01 32.749481 -115.497362 89 9487ft 154kts
11-Nov-19 20:02 32.750550 -115.446276 89 9484ft 154kts
11-Nov-19 20:03 32.751761 -115.395301 89 9484ft 154kts
11-Nov-19 20:04 32.752795 -115.344076 85 9497ft 155kts
11-Nov-19 20:05 32.754156 -115.292322 85 9503ft 156kts
11-Nov-19 20:06 32.755338 -115.240523 85 9188ft 158kts
11-Nov-19 20:07 32.756527 -115.187128 85 8506ft 162kts
11-Nov-19 20:08 32.757657 -115.134112 85 7895ft 159kts
11-Nov-19 20:09 32.758791 -115.081681 85 7291ft 159kts
11-Nov-19 20:10 32.759908 -115.029144 85 6687ft 159kts
11-Nov-19 20:11 32.761008 -114.976372 85 6083ft 160kts
11-Nov-19 20:12 32.762006 -114.924857 86 5456ft 147kts
11-Nov-19 20:13 32.761733 -114.876082 85 4618ft 147kts
11-Nov-19 20:14 32.764162 -114.828212 82 3833ft 144kts
11-Nov-19 20:15 32.764330 -114.780847 89 3114ft 143kts
11-Nov-19 20:17 32.764282 -114.734592 87 2589ft 136kts
11-Nov-19 20:18 32.762623 -114.690914 90 2280ft 126kts
11-Nov-19 20:19 32.758468 -114.648073 96 2120ft 135kts
11-Nov-19 20:20 32.751510 -114.604204 98 2282ft 138kts
11-Nov-19 20:21 32.737541 -114.561789 128 2062ft 106kts
11-Nov-19 20:22 32.709492 -114.552487 175 1613ft 101kts
11-Nov-19 20:23 32.681931 -114.552433 181 1418ft 96kts
11-Nov-19 20:24 32.657935 -114.561396 266 1087ft 88kts
11-Nov-19 20:25 32.666476 -114.590919 275 1147ft 113kts
11-Nov-19 20:26 32.650638 -114.613463 165 1284ft 112kts
11-Nov-19 20:27 32.636180 -114.587332 92 1424ft 90kts
11-Nov-19 20:28 32.636861 -114.558341 35 929ft 82kts
11-Nov-19 20:29 32.657418 -114.555710 349 1050ft 75kts
11-Nov-19 20:30 32.666266 -114.577467 274 420ft 75kts
11-Nov-19 20:31 32.666322 -114.593919 334 206ft 18kts
11-Nov-19 20:32 32.666940 -114.593979 357 206ft 0kts
11-Nov-19 20:33 32.667326 -114.596701 268 204ft 32kts
11-Nov-19 20:34 32.666873 -114.605635 188 194ft 9kts
11-Nov-19 20:35 32.661854 -114.607118 269 191ft 18kts
11-Nov-19 20:35 32.661297 -114.609520 0 191ft 0kts
11-Nov-19 20:37 32.661297 -114.609520 0 191ft 0kts
11-Nov-19 20:38 32.661297 -114.609520 0 191ft 0kts
11-Nov-19 20:38 32.661297 -114.609520 0 191ft 0kts
11-Nov-19 20:39 32.661297 -114.609520 0 191ft 0kts

Navigation Log

Ident Type
Flight plan parsing failed, navigation log unavailable